Time;durP1;ratioP1;P1;durP2;ratioP2;P2;SDS_P1;SDS_P2;PMS_P1;PMS_P2;Temp;Humidity;BMP_temperature;BMP_pressure;BME280_temperature;BME280_humidity;BME280_pressure;Samples;Min_cycle;Max_cycle;Signal;HPM_P1;HPM_P2
2023/03/21 00:00:28;;;;;;;13.83;6.60;;;;;;;;;;5101463;28;20456;-45
2023/03/21 00:02:54;;;;;;;18.53;6.07;;;;;;;;;;5097871;28;20672;-47
2023/03/21 00:05:20;;;;;;;19.17;8.07;;;;;;;;;;5100675;28;20403;-46
2023/03/21 00:07:46;;;;;;;12.37;7.83;;;;;;;;;;5095698;28;20411;-47
2023/03/21 00:10:12;;;;;;;14.83;6.30;;;;;;;;;;5095928;28;21001;-47
2023/03/21 00:12:38;;;;;;;9.90;6.97;;;;;;;;;;5095252;28;20442;-47
2023/03/21 00:15:08;;;;;;;18.30;7.27;;;;;;;;;;5092818;28;20923;-46
2023/03/21 00:17:34;;;;;;;14.83;6.53;;;;;;;;;;5094505;28;21051;-45
2023/03/21 00:20:04;;;;;;;13.37;6.60;;;;;;;;;;5096770;28;20423;-44
2023/03/21 00:22:30;;;;;;;13.37;5.87;;;;;;;;;;5092290;28;20595;-45
2023/03/21 00:24:56;;;;;;;10.47;6.97;;;;;;;;;;5089702;28;20403;-45
2023/03/21 00:27:22;;;;;;;15.17;6.20;;;;;;;;;;5091451;28;20417;-44
2023/03/21 00:29:48;;;;;;;10.30;6.13;;;;;;;;;;5091315;28;20483;-44
2023/03/21 00:32:19;;;;;;;13.70;6.20;;;;;;;;;;5089109;28;20416;-45
2023/03/21 00:34:45;;;;;;;10.63;5.80;;;;;;;;;;5091444;28;20422;-44
2023/03/21 00:37:13;;;;;;;16.77;6.30;;;;;;;;;;5086118;28;20454;-45
2023/03/21 00:39:39;;;;;;;11.40;6.57;;;;;;;;;;5084384;28;20970;-45
2023/03/21 00:42:05;;;;;;;18.53;6.97;;;;;;;;;;5100218;28;20885;-45
2023/03/21 00:44:35;;;;;;;10.50;6.43;;;;;;;;;;5095575;28;20445;-45
2023/03/21 00:47:02;;;;;;;11.20;6.03;;;;;;;;;;5099185;28;20433;-44
2023/03/21 00:49:32;;;;;;;14.60;5.80;;;;;;;;;;5091862;28;20400;-45
2023/03/21 00:51:58;;;;;;;18.33;5.83;;;;;;;;;;5095056;28;20411;-44
2023/03/21 00:54:24;;;;;;;10.77;5.43;;;;;;;;;;5095161;28;20418;-45
2023/03/21 00:56:50;;;;;;;13.70;5.57;;;;;;;;;;5095114;28;20872;-45
2023/03/21 00:59:16;;;;;;;9.80;5.43;;;;;;;;;;5094971;28;20407;-44
2023/03/21 01:01:45;;;;;;;10.17;6.13;;;;;;;;;;5091511;28;20454;-45
2023/03/21 01:04:13;;;;;;;5.77;5.20;;;;;;;;;;5095426;28;20473;-45
2023/03/21 01:06:39;;;;;;;11.00;5.63;;;;;;;;;;5094621;28;20411;-45
2023/03/21 01:09:06;;;;;;;17.03;7.03;;;;;;;;;;5094966;28;20494;-43
2023/03/21 01:11:33;;;;;;;23.13;6.80;;;;;;;;;;5094540;28;20413;-44
2023/03/21 01:13:59;;;;;;;13.13;6.27;;;;;;;;;;5094781;28;20466;-45
2023/03/21 01:16:25;;;;;;;10.40;6.23;;;;;;;;;;5094959;28;20513;-45
2023/03/21 01:18:51;;;;;;;13.17;6.43;;;;;;;;;;5094728;28;20407;-45
2023/03/21 01:21:16;;;;;;;10.60;5.40;;;;;;;;;;5094247;28;20411;-45
2023/03/21 01:23:43;;;;;;;11.30;6.00;;;;;;;;;;5090242;28;20933;-44
2023/03/21 01:26:10;;;;;;;10.40;5.77;;;;;;;;;;5086704;28;20407;-45
2023/03/21 01:28:37;;;;;;;10.07;6.80;;;;;;;;;;5093082;28;20457;-44
2023/03/21 01:31:04;;;;;;;12.10;5.80;;;;;;;;;;5093663;28;20911;-44
2023/03/21 01:33:30;;;;;;;12.90;7.13;;;;;;;;;;5093818;28;20430;-44
2023/03/21 01:35:56;;;;;;;12.40;5.83;;;;;;;;;;5094829;28;20938;-45
2023/03/21 01:38:22;;;;;;;12.27;6.23;;;;;;;;;;5100734;28;20415;-45
2023/03/21 01:40:50;;;;;;;8.73;6.70;;;;;;;;;;5092295;28;20813;-45
2023/03/21 01:43:27;;;;;;;12.00;6.70;;;;;;;;;;5100970;28;20419;-45
2023/03/21 01:46:07;;;;;;;12.37;7.33;;;;;;;;;;5092327;28;20418;-45
2023/03/21 01:48:33;;;;;;;16.00;6.43;;;;;;;;;;5089342;28;20498;-45
2023/03/21 01:51:00;;;;;;;12.87;6.43;;;;;;;;;;5084923;28;20467;-45
2023/03/21 01:53:28;;;;;;;8.97;6.87;;;;;;;;;;5093933;28;20427;-45
2023/03/21 01:56:00;;;;;;;16.80;8.37;;;;;;;;;;5093869;28;20554;-45
2023/03/21 01:58:27;;;;;;;15.50;7.30;;;;;;;;;;5088288;28;20456;-44
2023/03/21 02:00:55;;;;;;;23.00;7.93;;;;;;;;;;5092601;28;20460;-44
2023/03/21 02:03:22;;;;;;;16.37;7.27;;;;;;;;;;5090401;28;20943;-45
2023/03/21 02:05:51;;;;;;;17.07;7.10;;;;;;;;;;5091902;28;21005;-45
2023/03/21 02:08:19;;;;;;;16.03;6.43;;;;;;;;;;5091234;28;20436;-45
2023/03/21 02:10:46;;;;;;;7.10;6.00;;;;;;;;;;5091539;28;20848;-44
2023/03/21 02:13:13;;;;;;;13.77;7.07;;;;;;;;;;5095501;28;20931;-45
2023/03/21 02:15:40;;;;;;;17.90;8.10;;;;;;;;;;5093261;28;20459;-45
2023/03/21 02:18:14;;;;;;;10.00;7.20;;;;;;;;;;5090403;28;20943;-44
2023/03/21 02:20:48;;;;;;;11.47;7.23;;;;;;;;;;5088211;28;20915;-45
2023/03/21 02:23:32;;;;;;;9.70;7.20;;;;;;;;;;5090726;28;20427;-45
2023/03/21 02:26:16;;;;;;;14.60;7.53;;;;;;;;;;5094052;28;20452;-45
2023/03/21 02:28:47;;;;;;;14.20;7.83;;;;;;;;;;5096983;28;20984;-45
2023/03/21 02:31:31;;;;;;;12.80;7.53;;;;;;;;;;5082971;28;20442;-45
2023/03/21 02:34:12;;;;;;;17.03;9.00;;;;;;;;;;5086424;28;20584;-45
2023/03/21 02:36:57;;;;;;;20.20;7.83;;;;;;;;;;5087916;28;20485;-45
2023/03/21 02:39:29;;;;;;;11.83;8.10;;;;;;;;;;5086589;28;20400;-45
2023/03/21 02:42:07;;;;;;;19.60;8.97;;;;;;;;;;5090920;28;20936;-45
2023/03/21 02:44:52;;;;;;;19.27;9.53;;;;;;;;;;5093066;28;20496;-45
2023/03/21 02:47:21;;;;;;;14.30;7.57;;;;;;;;;;5095934;28;20418;-45
2023/03/21 02:49:57;;;;;;;15.23;9.27;;;;;;;;;;5092957;28;20507;-42
2023/03/21 02:52:25;;;;;;;17.93;9.37;;;;;;;;;;5094038;28;20476;-43
2023/03/21 02:54:52;;;;;;;16.47;8.90;;;;;;;;;;5092732;28;20422;-43
2023/03/21 02:57:18;;;;;;;17.47;9.03;;;;;;;;;;5090728;28;20984;-42
2023/03/21 02:59:46;;;;;;;16.63;8.50;;;;;;;;;;5092942;28;20411;-42
2023/03/21 03:02:12;;;;;;;18.53;8.93;;;;;;;;;;5091411;28;20407;-43
2023/03/21 03:04:40;;;;;;;14.80;8.63;;;;;;;;;;5085430;28;20506;-43
2023/03/21 03:07:24;;;;;;;15.07;9.20;;;;;;;;;;5091810;28;20944;-43
2023/03/21 03:10:09;;;;;;;20.53;8.70;;;;;;;;;;5090356;28;20763;-42
2023/03/21 03:12:35;;;;;;;14.63;9.20;;;;;;;;;;5089872;28;20454;-43
2023/03/21 03:15:20;;;;;;;21.33;9.73;;;;;;;;;;5092376;28;20479;-44
2023/03/21 03:17:55;;;;;;;16.03;9.07;;;;;;;;;;5092832;28;20419;-44
2023/03/21 03:20:28;;;;;;;20.00;10.00;;;;;;;;;;5090426;28;20895;-43
2023/03/21 03:23:02;;;;;;;12.37;7.90;;;;;;;;;;5092564;28;20420;-45
2023/03/21 03:25:31;;;;;;;19.53;8.20;;;;;;;;;;5089116;28;20418;-43
2023/03/21 03:27:58;;;;;;;17.20;8.40;;;;;;;;;;5084639;28;20423;-45
2023/03/21 03:30:26;;;;;;;15.47;9.90;;;;;;;;;;5090910;28;20411;-43
2023/03/21 03:32:54;;;;;;;24.80;9.53;;;;;;;;;;5091123;28;20509;-43
2023/03/21 03:35:22;;;;;;;20.67;8.93;;;;;;;;;;5092045;28;20900;-44
2023/03/21 03:37:51;;;;;;;16.57;9.53;;;;;;;;;;5089890;28;20505;-43
2023/03/21 03:40:26;;;;;;;20.27;9.20;;;;;;;;;;5091575;28;20493;-43
2023/03/21 03:42:58;;;;;;;24.93;8.20;;;;;;;;;;5090019;28;20477;-43
2023/03/21 03:45:28;;;;;;;19.20;9.17;;;;;;;;;;5091851;28;20493;-44
2023/03/21 03:48:04;;;;;;;18.40;9.03;;;;;;;;;;5094217;28;20421;-43
2023/03/21 03:50:37;;;;;;;16.43;9.70;;;;;;;;;;5088681;28;20402;-44
2023/03/21 03:53:18;;;;;;;12.87;7.70;;;;;;;;;;5095388;28;20485;-44
2023/03/21 03:55:44;;;;;;;16.40;9.43;;;;;;;;;;5085606;28;20542;-44
2023/03/21 03:58:11;;;;;;;14.80;9.03;;;;;;;;;;5092081;28;20415;-43
2023/03/21 04:00:37;;;;;;;14.73;8.70;;;;;;;;;;5090923;28;20395;-44
2023/03/21 04:03:06;;;;;;;12.67;8.13;;;;;;;;;;5091501;28;20477;-43
2023/03/21 04:05:32;;;;;;;24.00;9.83;;;;;;;;;;5091773;28;20403;-44
2023/03/21 04:07:58;;;;;;;21.63;10.47;;;;;;;;;;5098969;28;20420;-43
2023/03/21 04:10:23;;;;;;;20.87;8.43;;;;;;;;;;5085229;28;20432;-43
2023/03/21 04:12:50;;;;;;;20.53;9.37;;;;;;;;;;5091079;28;20431;-44
2023/03/21 04:15:17;;;;;;;16.60;8.80;;;;;;;;;;5090183;28;20419;-43
2023/03/21 04:17:44;;;;;;;14.00;8.63;;;;;;;;;;5095412;28;20494;-43
2023/03/21 04:20:10;;;;;;;14.07;8.93;;;;;;;;;;5091187;28;20400;-43
2023/03/21 04:22:36;;;;;;;19.53;9.33;;;;;;;;;;5087518;28;20411;-43
2023/03/21 04:25:04;;;;;;;17.30;9.30;;;;;;;;;;5091423;28;20411;-44
2023/03/21 04:27:31;;;;;;;15.90;9.17;;;;;;;;;;5095955;28;20410;-43
2023/03/21 04:29:57;;;;;;;24.60;10.00;;;;;;;;;;5091934;28;20420;-43
2023/03/21 04:32:23;;;;;;;19.73;9.50;;;;;;;;;;5094019;28;20483;-44
2023/03/21 04:34:52;;;;;;;19.10;9.67;;;;;;;;;;5090794;28;20427;-43
2023/03/21 04:37:19;;;;;;;16.30;8.90;;;;;;;;;;5090422;28;20499;-44
2023/03/21 04:39:48;;;;;;;19.17;9.17;;;;;;;;;;5091607;28;20478;-43
2023/03/21 04:42:14;;;;;;;15.47;9.10;;;;;;;;;;5083493;28;20430;-43
2023/03/21 04:44:41;;;;;;;16.90;9.70;;;;;;;;;;5094907;28;20932;-46
2023/03/21 04:47:07;;;;;;;21.13;9.03;;;;;;;;;;5096568;28;20471;-44
2023/03/21 04:49:33;;;;;;;22.10;10.17;;;;;;;;;;5096627;28;20953;-45
2023/03/21 04:51:59;;;;;;;23.07;9.50;;;;;;;;;;5095519;28;20414;-45
2023/03/21 04:54:25;;;;;;;11.90;8.77;;;;;;;;;;5100342;28;20499;-47
2023/03/21 04:56:51;;;;;;;23.33;9.70;;;;;;;;;;5096000;28;20451;-46
2023/03/21 04:59:17;;;;;;;18.37;9.60;;;;;;;;;;5097120;28;20809;-42
2023/03/21 05:01:43;;;;;;;17.80;9.53;;;;;;;;;;5090776;28;20418;-43
2023/03/21 05:04:10;;;;;;;16.80;8.70;;;;;;;;;;5091180;28;20505;-43
2023/03/21 05:06:36;;;;;;;13.93;8.93;;;;;;;;;;5087758;28;20435;-43
2023/03/21 05:09:04;;;;;;;16.00;9.57;;;;;;;;;;5087894;28;20927;-42
2023/03/21 05:11:31;;;;;;;19.10;9.27;;;;;;;;;;5090745;28;20900;-43
2023/03/21 05:13:57;;;;;;;17.23;9.20;;;;;;;;;;5090928;28;20431;-45
2023/03/21 05:16:25;;;;;;;14.03;9.20;;;;;;;;;;5090993;28;20508;-44
2023/03/21 05:18:53;;;;;;;16.20;9.27;;;;;;;;;;5094265;28;20419;-43
2023/03/21 05:21:19;;;;;;;18.73;9.07;;;;;;;;;;5090547;28;20468;-45
2023/03/21 05:23:52;;;;;;;16.60;8.77;;;;;;;;;;5090939;28;20995;-43
2023/03/21 05:26:19;;;;;;;16.07;8.63;;;;;;;;;;5092013;28;20410;-43
2023/03/21 05:28:46;;;;;;;17.30;9.40;;;;;;;;;;5094651;28;20455;-43
2023/03/21 05:31:15;;;;;;;22.27;8.53;;;;;;;;;;5094195;28;20461;-43
2023/03/21 05:33:41;;;;;;;24.20;9.47;;;;;;;;;;5093018;28;20868;-42
2023/03/21 05:36:07;;;;;;;17.10;8.07;;;;;;;;;;5084338;28;20494;-43
2023/03/21 05:38:33;;;;;;;19.00;7.90;;;;;;;;;;5091785;28;20413;-42
2023/03/21 05:40:59;;;;;;;17.63;9.50;;;;;;;;;;5093274;28;20414;-43
2023/03/21 05:43:25;;;;;;;13.47;7.57;;;;;;;;;;5095889;28;20423;-44
2023/03/21 05:45:51;;;;;;;24.60;7.93;;;;;;;;;;5094470;28;20418;-43
2023/03/21 05:48:18;;;;;;;23.93;8.00;;;;;;;;;;5094367;28;20933;-44
2023/03/21 05:50:44;;;;;;;17.20;7.87;;;;;;;;;;5093611;28;20498;-43
2023/03/21 05:53:10;;;;;;;12.80;7.87;;;;;;;;;;5093527;28;20491;-43
2023/03/21 05:55:36;;;;;;;17.30;7.73;;;;;;;;;;5092573;28;20399;-44
2023/03/21 05:58:02;;;;;;;16.03;7.23;;;;;;;;;;5093489;28;20880;-45
2023/03/21 06:00:28;;;;;;;10.57;6.93;;;;;;;;;;5093481;28;20400;-45
2023/03/21 06:02:54;;;;;;;13.57;7.10;;;;;;;;;;5094539;28;20446;-45
2023/03/21 06:05:20;;;;;;;11.70;7.00;;;;;;;;;;5086928;28;20431;-45
2023/03/21 06:07:46;;;;;;;13.17;7.53;;;;;;;;;;5092565;28;20411;-45
2023/03/21 06:10:12;;;;;;;10.37;5.97;;;;;;;;;;5093389;28;20808;-43
2023/03/21 06:12:39;;;;;;;14.87;6.97;;;;;;;;;;5093157;28;20435;-43
2023/03/21 06:15:07;;;;;;;19.33;8.37;;;;;;;;;;5091856;28;20428;-43
2023/03/21 06:17:34;;;;;;;10.63;6.33;;;;;;;;;;5093319;28;20496;-43
2023/03/21 06:20:00;;;;;;;11.67;6.87;;;;;;;;;;5093802;28;20982;-47
2023/03/21 06:22:26;;;;;;;13.07;7.23;;;;;;;;;;5091956;28;20905;-44
2023/03/21 06:24:52;;;;;;;13.10;7.40;;;;;;;;;;5098963;28;20408;-43
2023/03/21 06:27:19;;;;;;;13.87;7.83;;;;;;;;;;5093095;28;20408;-43
2023/03/21 06:29:45;;;;;;;16.87;7.10;;;;;;;;;;5092775;28;20411;-43
2023/03/21 06:32:11;;;;;;;13.10;7.47;;;;;;;;;;5092355;28;20411;-43
2023/03/21 06:34:37;;;;;;;19.03;7.40;;;;;;;;;;5091412;28;20456;-43
2023/03/21 06:37:03;;;;;;;12.83;6.77;;;;;;;;;;5085700;28;20520;-46
2023/03/21 06:39:30;;;;;;;11.80;6.70;;;;;;;;;;5092782;28;20408;-43
2023/03/21 06:41:56;;;;;;;10.20;6.40;;;;;;;;;;5092010;28;20887;-43
2023/03/21 06:44:23;;;;;;;13.13;6.90;;;;;;;;;;5092224;28;20420;-43
2023/03/21 06:46:49;;;;;;;15.43;6.33;;;;;;;;;;5092823;28;20410;-43
2023/03/21 06:49:15;;;;;;;17.83;7.17;;;;;;;;;;5096380;28;20415;-43
2023/03/21 06:51:41;;;;;;;10.07;6.33;;;;;;;;;;5092322;28;20822;-42
2023/03/21 06:54:07;;;;;;;12.60;6.40;;;;;;;;;;5097836;28;20430;-42
2023/03/21 06:56:33;;;;;;;13.40;6.90;;;;;;;;;;5088233;28;20447;-43
2023/03/21 06:58:59;;;;;;;13.83;7.53;;;;;;;;;;5098711;28;20406;-43
2023/03/21 07:01:26;;;;;;;9.97;6.10;;;;;;;;;;5092207;28;20936;-43
2023/03/21 07:03:55;;;;;;;13.57;6.33;;;;;;;;;;5096073;28;20431;-42
2023/03/21 07:06:21;;;;;;;12.47;7.00;;;;;;;;;;5088817;28;20410;-43
2023/03/21 07:08:47;;;;;;;11.23;7.10;;;;;;;;;;5091855;28;20935;-43
2023/03/21 07:11:13;;;;;;;14.77;6.73;;;;;;;;;;5089208;28;20415;-43
2023/03/21 07:13:39;;;;;;;9.03;5.90;;;;;;;;;;5088508;28;20927;-43
2023/03/21 07:16:05;;;;;;;10.73;6.70;;;;;;;;;;5091990;28;20463;-43
2023/03/21 07:18:31;;;;;;;10.93;6.33;;;;;;;;;;5091330;28;20404;-42
2023/03/21 07:20:57;;;;;;;12.83;6.63;;;;;;;;;;5091682;28;20449;-43
2023/03/21 07:23:24;;;;;;;10.70;6.33;;;;;;;;;;5094123;28;20465;-42
2023/03/21 07:25:51;;;;;;;21.13;6.90;;;;;;;;;;5094994;27;20966;-44
2023/03/21 07:28:17;;;;;;;11.33;5.93;;;;;;;;;;5092440;28;20457;-43
2023/03/21 07:30:44;;;;;;;11.10;6.37;;;;;;;;;;5091632;28;20422;-43
2023/03/21 07:33:11;;;;;;;12.63;7.00;;;;;;;;;;5090935;28;20766;-43
2023/03/21 07:35:37;;;;;;;15.40;6.70;;;;;;;;;;5092019;28;20925;-45
2023/03/21 07:38:04;;;;;;;13.43;6.07;;;;;;;;;;5091363;28;20445;-44
2023/03/21 07:40:30;;;;;;;14.77;5.70;;;;;;;;;;5091532;28;20408;-43
2023/03/21 07:42:58;;;;;;;14.13;6.20;;;;;;;;;;5092025;28;20515;-43
2023/03/21 07:45:25;;;;;;;11.70;7.00;;;;;;;;;;5094849;28;20414;-43
2023/03/21 07:47:51;;;;;;;10.40;5.77;;;;;;;;;;5092105;28;20415;-43
2023/03/21 07:50:18;;;;;;;10.33;5.97;;;;;;;;;;5094086;28;20403;-43
2023/03/21 07:52:44;;;;;;;17.37;6.90;;;;;;;;;;5092097;28;20472;-43
2023/03/21 07:55:10;;;;;;;15.10;7.37;;;;;;;;;;5091747;28;20399;-42
2023/03/21 07:57:36;;;;;;;13.03;6.80;;;;;;;;;;5092032;28;20465;-43
2023/03/21 08:00:04;;;;;;;13.60;6.40;;;;;;;;;;5091519;28;20442;-43
2023/03/21 08:02:30;;;;;;;23.83;7.97;;;;;;;;;;5091693;28;20435;-42
2023/03/21 08:04:57;;;;;;;17.23;6.80;;;;;;;;;;5089147;28;20427;-43
2023/03/21 08:07:23;;;;;;;17.73;7.87;;;;;;;;;;5091911;28;20399;-42
2023/03/21 08:09:49;;;;;;;17.83;6.67;;;;;;;;;;5093523;28;20433;-44
2023/03/21 08:12:15;;;;;;;13.10;6.50;;;;;;;;;;5090335;28;20423;-46
2023/03/21 08:14:41;;;;;;;11.10;5.97;;;;;;;;;;5088079;28;20419;-43
2023/03/21 08:17:08;;;;;;;17.37;7.17;;;;;;;;;;5091409;28;20600;-42
2023/03/21 08:19:34;;;;;;;12.07;6.57;;;;;;;;;;5091773;28;20465;-43
2023/03/21 08:22:01;;;;;;;12.60;6.23;;;;;;;;;;5091110;28;20502;-43
2023/03/21 08:24:27;;;;;;;13.63;6.60;;;;;;;;;;5091306;28;20818;-46
2023/03/21 08:26:53;;;;;;;18.10;6.30;;;;;;;;;;5091243;28;20912;-44
2023/03/21 08:29:20;;;;;;;20.10;6.90;;;;;;;;;;5091683;28;20411;-45
2023/03/21 08:31:46;;;;;;;10.20;6.40;;;;;;;;;;5088995;28;20895;-42
2023/03/21 08:34:12;;;;;;;9.30;6.40;;;;;;;;;;5089193;28;20443;-43
2023/03/21 08:36:38;;;;;;;12.30;6.97;;;;;;;;;;5091501;28;20463;-45
2023/03/21 08:39:04;;;;;;;12.00;6.67;;;;;;;;;;5091375;28;20400;-45
2023/03/21 08:41:34;;;;;;;9.33;6.37;;;;;;;;;;5090592;28;20483;-45
2023/03/21 08:44:05;;;;;;;12.83;5.87;;;;;;;;;;5092512;28;20431;-45
2023/03/21 08:46:31;;;;;;;16.97;6.60;;;;;;;;;;5091752;28;20504;-44
2023/03/21 08:48:57;;;;;;;15.93;7.03;;;;;;;;;;5092041;28;20412;-45
2023/03/21 08:51:23;;;;;;;13.20;6.30;;;;;;;;;;5087610;28;20779;-45
2023/03/21 08:53:50;;;;;;;11.10;6.50;;;;;;;;;;5088759;28;21782;-45
2023/03/21 08:56:16;;;;;;;10.10;6.87;;;;;;;;;;5097116;28;20478;-45
2023/03/21 08:58:43;;;;;;;14.13;6.80;;;;;;;;;;5090194;28;20407;-45
2023/03/21 09:01:10;;;;;;;11.20;7.10;;;;;;;;;;5088399;28;20955;-44
2023/03/21 09:03:37;;;;;;;14.03;6.80;;;;;;;;;;5095285;28;21058;-46
2023/03/21 09:06:03;;;;;;;14.40;6.33;;;;;;;;;;5099955;28;20435;-45
2023/03/21 09:08:29;;;;;;;10.63;6.73;;;;;;;;;;5095015;28;20396;-46
2023/03/21 09:10:56;;;;;;;14.33;7.20;;;;;;;;;;5106333;28;20640;-47
2023/03/21 09:13:22;;;;;;;20.20;7.17;;;;;;;;;;5095906;28;20438;-42
2023/03/21 09:15:48;;;;;;;12.90;8.03;;;;;;;;;;5097787;28;20467;-42
2023/03/21 09:18:16;;;;;;;17.03;7.23;;;;;;;;;;5095136;28;20444;-42
2023/03/21 09:20:43;;;;;;;13.03;7.80;;;;;;;;;;5094185;28;20418;-46
2023/03/21 09:23:10;;;;;;;17.47;8.23;;;;;;;;;;5094431;28;20430;-46
2023/03/21 09:25:37;;;;;;;16.07;8.40;;;;;;;;;;5092302;28;20412;-45
2023/03/21 09:28:04;;;;;;;12.80;8.50;;;;;;;;;;5094239;28;20411;-43
2023/03/21 09:30:31;;;;;;;15.33;9.47;;;;;;;;;;5099693;28;20491;-45
2023/03/21 09:32:59;;;;;;;16.90;8.10;;;;;;;;;;5093398;28;20932;-43
2023/03/21 09:35:25;;;;;;;13.50;8.30;;;;;;;;;;5093340;28;20427;-42
2023/03/21 09:37:53;;;;;;;14.70;8.20;;;;;;;;;;5094360;28;20439;-43
2023/03/21 09:40:24;;;;;;;13.73;8.60;;;;;;;;;;5097370;28;20930;-43
2023/03/21 09:43:06;;;;;;;19.57;9.13;;;;;;;;;;5098706;28;20435;-46
2023/03/21 09:45:47;;;;;;;15.63;8.30;;;;;;;;;;5098955;28;20416;-45
2023/03/21 09:48:18;;;;;;;14.47;7.60;;;;;;;;;;5088574;28;20482;-45
2023/03/21 09:50:45;;;;;;;13.00;8.20;;;;;;;;;;5099515;28;20415;-48
2023/03/21 09:53:15;;;;;;;11.63;7.00;;;;;;;;;;5096918;28;20435;-46
2023/03/21 09:55:43;;;;;;;8.87;7.10;;;;;;;;;;5099705;28;20488;-45
2023/03/21 09:58:25;;;;;;;10.30;6.83;;;;;;;;;;5095385;28;20400;-47
2023/03/21 10:00:55;;;;;;;13.17;6.90;;;;;;;;;;5097454;28;20411;-46
2023/03/21 10:03:25;;;;;;;16.07;8.00;;;;;;;;;;5091185;28;20445;-43
2023/03/21 10:05:57;;;;;;;10.57;7.00;;;;;;;;;;5092488;28;20415;-43
2023/03/21 10:08:27;;;;;;;11.57;6.60;;;;;;;;;;5094140;28;20409;-43
2023/03/21 10:10:55;;;;;;;8.97;6.20;;;;;;;;;;5094758;28;20419;-43
2023/03/21 10:13:29;;;;;;;7.20;6.00;;;;;;;;;;5093263;28;20415;-44
2023/03/21 10:16:15;;;;;;;8.30;5.77;;;;;;;;;;5100356;28;20460;-44
2023/03/21 10:18:41;;;;;;;9.57;6.10;;;;;;;;;;5091000;28;20907;-45
2023/03/21 10:21:15;;;;;;;6.53;5.23;;;;;;;;;;5094896;28;20419;-43
2023/03/21 10:23:41;;;;;;;10.80;4.97;;;;;;;;;;5094752;28;20439;-42
2023/03/21 10:26:08;;;;;;;7.80;5.40;;;;;;;;;;5088886;28;20818;-45
2023/03/21 10:28:37;;;;;;;13.70;5.17;;;;;;;;;;5093744;28;20404;-44
2023/03/21 10:31:04;;;;;;;12.80;5.17;;;;;;;;;;5091045;28;20453;-45
2023/03/21 10:33:38;;;;;;;7.60;5.10;;;;;;;;;;5081608;28;20428;-43
2023/03/21 10:36:06;;;;;;;7.60;5.43;;;;;;;;;;5093514;28;20964;-43
2023/03/21 10:38:32;;;;;;;6.63;5.40;;;;;;;;;;5094136;28;20973;-45
2023/03/21 10:40:58;;;;;;;9.23;4.60;;;;;;;;;;5093248;28;20537;-46
2023/03/21 10:43:36;;;;;;;4.60;4.00;;;;;;;;;;5092126;28;20431;-45
2023/03/21 10:46:13;;;;;;;6.87;3.90;;;;;;;;;;5093310;28;20411;-43
2023/03/21 10:48:44;;;;;;;8.73;4.37;;;;;;;;;;5093092;28;20407;-43
2023/03/21 10:51:14;;;;;;;8.63;3.70;;;;;;;;;;5088075;28;20418;-45
2023/03/21 10:53:46;;;;;;;6.70;3.40;;;;;;;;;;5092781;28;20441;-44
2023/03/21 10:56:23;;;;;;;11.47;4.37;;;;;;;;;;5087729;28;20455;-47
2023/03/21 10:58:51;;;;;;;7.03;3.70;;;;;;;;;;5084568;28;20569;-43
2023/03/21 11:01:29;;;;;;;4.37;3.73;;;;;;;;;;5090926;28;20425;-44
2023/03/21 11:03:56;;;;;;;7.00;3.60;;;;;;;;;;5091012;28;20493;-43
2023/03/21 11:06:28;;;;;;;5.07;3.37;;;;;;;;;;5092718;28;20923;-44
2023/03/21 11:08:55;;;;;;;5.90;3.70;;;;;;;;;;5090837;28;20513;-45
2023/03/21 11:11:26;;;;;;;7.67;3.73;;;;;;;;;;5092182;28;20458;-44
2023/03/21 11:13:56;;;;;;;6.13;4.00;;;;;;;;;;5092349;28;20433;-45
2023/03/21 11:16:30;;;;;;;8.67;4.13;;;;;;;;;;5092843;28;20469;-44
2023/03/21 11:19:00;;;;;;;7.40;4.10;;;;;;;;;;5090979;28;20749;-43
2023/03/21 11:21:27;;;;;;;8.60;3.87;;;;;;;;;;5088763;28;20409;-43
2023/03/21 11:23:54;;;;;;;6.80;3.90;;;;;;;;;;5089197;28;20447;-44
2023/03/21 11:26:32;;;;;;;8.67;4.23;;;;;;;;;;5095744;28;20836;-44
2023/03/21 11:28:58;;;;;;;12.33;4.20;;;;;;;;;;5090904;28;20416;-44
2023/03/21 11:31:53;;;;;;;6.00;3.73;;;;;;;;;;5099118;28;20776;-44
2023/03/21 11:34:27;;;;;;;6.77;3.70;;;;;;;;;;5087319;28;20531;-43
2023/03/21 11:36:58;;;;;;;6.90;3.93;;;;;;;;;;5097355;28;20479;-44
2023/03/21 11:39:30;;;;;;;10.10;4.43;;;;;;;;;;5092157;28;20492;-44
2023/03/21 11:41:56;;;;;;;8.97;4.10;;;;;;;;;;5091803;28;20967;-43
2023/03/21 11:44:29;;;;;;;10.93;4.27;;;;;;;;;;5091866;28;20463;-44
2023/03/21 11:46:56;;;;;;;5.93;3.67;;;;;;;;;;5091060;28;20447;-43
2023/03/21 11:49:23;;;;;;;5.00;3.67;;;;;;;;;;5092143;28;20477;-43
2023/03/21 11:51:50;;;;;;;4.13;3.40;;;;;;;;;;5091307;28;20499;-43
2023/03/21 11:54:28;;;;;;;3.80;3.47;;;;;;;;;;5086412;28;21098;-43
2023/03/21 11:57:00;;;;;;;6.70;4.20;;;;;;;;;;5094881;28;20468;-44
2023/03/21 11:59:34;;;;;;;8.50;3.90;;;;;;;;;;5095045;28;20474;-45
2023/03/21 12:02:12;;;;;;;3.77;3.10;;;;;;;;;;5098806;28;20461;-47
2023/03/21 12:04:44;;;;;;;7.97;4.60;;;;;;;;;;5089878;28;20510;-47
2023/03/21 12:07:10;;;;;;;6.20;2.70;;;;;;;;;;5085349;28;20418;-48
2023/03/21 12:09:42;;;;;;;4.20;3.77;;;;;;;;;;5086026;28;20557;-45
2023/03/21 12:12:23;;;;;;;3.00;2.80;;;;;;;;;;5091205;28;20417;-45
2023/03/21 12:15:00;;;;;;;6.73;3.53;;;;;;;;;;5090213;28;20793;-45
2023/03/21 12:17:32;;;;;;;6.70;3.00;;;;;;;;;;5091901;28;20470;-45
2023/03/21 12:19:58;;;;;;;5.23;3.13;;;;;;;;;;5091754;28;20496;-45
2023/03/21 12:22:27;;;;;;;4.27;2.63;;;;;;;;;;5095568;28;20876;-44
2023/03/21 12:24:54;;;;;;;4.73;2.90;;;;;;;;;;5089143;28;20940;-43
2023/03/21 12:27:37;;;;;;;6.50;3.23;;;;;;;;;;5090932;28;20474;-44
2023/03/21 12:30:09;;;;;;;8.00;3.03;;;;;;;;;;5090665;28;20428;-44
2023/03/21 12:32:48;;;;;;;6.50;3.77;;;;;;;;;;5092604;28;20437;-45
2023/03/21 12:35:33;;;;;;;4.33;2.83;;;;;;;;;;5090289;28;21240;-43
2023/03/21 12:38:17;;;;;;;3.73;3.20;;;;;;;;;;5093961;28;20451;-45
2023/03/21 12:40:49;;;;;;;2.90;2.70;;;;;;;;;;5096966;28;20439;-45
2023/03/21 12:43:23;;;;;;;3.23;2.93;;;;;;;;;;5092739;28;21130;-44
2023/03/21 12:45:51;;;;;;;8.70;3.40;;;;;;;;;;5097336;28;20404;-44
2023/03/21 12:48:22;;;;;;;5.40;3.30;;;;;;;;;;5093177;28;20423;-47
2023/03/21 12:50:50;;;;;;;3.60;3.30;;;;;;;;;;5096669;28;20412;-45
2023/03/21 12:53:29;;;;;;;6.40;3.00;;;;;;;;;;5095192;28;20531;-45
2023/03/21 12:55:58;;;;;;;3.70;3.33;;;;;;;;;;5088550;28;20478;-45
2023/03/21 12:58:27;;;;;;;4.47;4.10;;;;;;;;;;5095404;28;20489;-45
2023/03/21 13:00:55;;;;;;;7.07;3.43;;;;;;;;;;5094603;28;20500;-45
2023/03/21 13:03:23;;;;;;;5.13;3.23;;;;;;;;;;5095105;28;20472;-45
2023/03/21 13:05:54;;;;;;;4.53;4.00;;;;;;;;;;5091123;28;20842;-45
2023/03/21 13:08:36;;;;;;;4.07;3.20;;;;;;;;;;5095193;28;20432;-45
2023/03/21 13:11:02;;;;;;;5.00;3.50;;;;;;;;;;5095429;28;20413;-44
2023/03/21 13:13:41;;;;;;;7.87;4.00;;;;;;;;;;5094887;28;20934;-45
2023/03/21 13:16:11;;;;;;;7.10;4.47;;;;;;;;;;5090881;28;20974;-44
2023/03/21 13:18:56;;;;;;;7.00;3.70;;;;;;;;;;5094676;28;20408;-43
2023/03/21 13:21:24;;;;;;;6.97;4.20;;;;;;;;;;5085249;28;20906;-47
2023/03/21 13:24:01;;;;;;;4.47;3.53;;;;;;;;;;5093123;28;20419;-42
2023/03/21 13:26:36;;;;;;;6.70;4.03;;;;;;;;;;5092404;28;20840;-45
2023/03/21 13:29:11;;;;;;;3.50;3.20;;;;;;;;;;5093873;28;20446;-42
2023/03/21 13:31:43;;;;;;;5.87;4.03;;;;;;;;;;5090682;28;20407;-44
2023/03/21 13:34:09;;;;;;;7.63;4.10;;;;;;;;;;5092266;28;20460;-43
2023/03/21 13:36:38;;;;;;;7.30;3.60;;;;;;;;;;5093583;28;20849;-42
2023/03/21 13:39:05;;;;;;;5.93;3.60;;;;;;;;;;5093543;28;20500;-45
2023/03/21 13:41:34;;;;;;;3.63;3.30;;;;;;;;;;5093845;28;20453;-43
2023/03/21 13:44:02;;;;;;;3.60;3.30;;;;;;;;;;5096052;28;20432;-47
2023/03/21 13:46:28;;;;;;;8.13;3.53;;;;;;;;;;5097296;28;20548;-45
2023/03/21 13:48:57;;;;;;;5.60;3.00;;;;;;;;;;5094442;28;20776;-42
2023/03/21 13:51:36;;;;;;;7.40;3.60;;;;;;;;;;5093780;28;20410;-43
2023/03/21 13:54:08;;;;;;;6.20;3.40;;;;;;;;;;5091524;28;20528;-43
2023/03/21 13:56:46;;;;;;;4.40;3.30;;;;;;;;;;5099722;28;20552;-43
2023/03/21 13:59:24;;;;;;;5.20;3.30;;;;;;;;;;5090617;28;20466;-44
2023/03/21 14:02:01;;;;;;;3.93;3.30;;;;;;;;;;5100769;28;20418;-43
2023/03/21 14:04:29;;;;;;;3.47;3.17;;;;;;;;;;5093659;28;20511;-43
2023/03/21 14:07:01;;;;;;;3.20;3.00;;;;;;;;;;5103691;28;20411;-48
2023/03/21 14:09:30;;;;;;;7.90;3.27;;;;;;;;;;5098395;28;20453;-47
2023/03/21 14:11:56;;;;;;;5.07;3.57;;;;;;;;;;5099878;28;20416;-47
2023/03/21 14:14:24;;;;;;;7.23;3.00;;;;;;;;;;5097275;28;20773;-48
2023/03/21 14:16:52;;;;;;;3.60;3.20;;;;;;;;;;5097603;28;20457;-46
2023/03/21 14:19:19;;;;;;;3.80;3.03;;;;;;;;;;5098208;28;20403;-47
2023/03/21 14:21:52;;;;;;;3.83;3.13;;;;;;;;;;5096249;28;20949;-48
2023/03/21 14:24:20;;;;;;;5.20;2.93;;;;;;;;;;5094504;28;20933;-45
2023/03/21 14:26:49;;;;;;;4.70;3.47;;;;;;;;;;5099525;28;20973;-46
2023/03/21 14:29:26;;;;;;;5.63;3.33;;;;;;;;;;5096127;28;20481;-47
2023/03/21 14:31:52;;;;;;;2.80;2.50;;;;;;;;;;5098137;28;20428;-47
2023/03/21 14:34:19;;;;;;;7.10;3.20;;;;;;;;;;5096401;28;20433;-45
2023/03/21 14:36:45;;;;;;;2.60;2.40;;;;;;;;;;5101137;28;20468;-47
2023/03/21 14:39:17;;;;;;;2.73;2.50;;;;;;;;;;5097925;28;20405;-45
2023/03/21 14:41:47;;;;;;;8.30;3.30;;;;;;;;;;5093958;28;20394;-45
2023/03/21 14:44:24;;;;;;;3.97;3.40;;;;;;;;;;5088212;28;20477;-44